nws-alerts: Checking more than four warning/county codes can delay the loading of your pages. You should use a cron job to get the data.
EllijayWeather Historical Data
Daily Summary for February 21, 2020 Units:  English    Metric   Both
Daily Weekly Monthly Yearly
  High: Low: Average:
Temperature: 45.0 °F 28.0 °F 35.3 °F
Dew Point: 32.0 °F 24.0 °F 28 °F
Humidity: 90% 49% 76%
Wind Speed: 11mph 0mph 3.2mph
Wind Gust: 14mph - -
Wind- - WNW
Pressure: 30.6 in 30.4 in -
Precipitation: 0.000 in    
 
 
Tabular Data for February 21, 2020
Time Temperature Dew Point Pressure Wind Wind Speed Wind Gust Humidity Rainfall Rate (Hourly)
00:04 35.0 °F 32.0 °F 30.4 in NW 5 mph 6 mph 87% 0.000 in
00:09 35.0 °F 32.0 °F 30.4 in NW 3 mph 8 mph 87% 0.000 in
00:14 35.0 °F 32.0 °F 30.4 in NNW 3 mph 4 mph 87% 0.000 in
00:19 35.0 °F 32.0 °F 30.4 in NW 8 mph 10 mph 87% 0.000 in
00:24 35.0 °F 31.0 °F 30.4 in North 4 mph 9 mph 86% 0.000 in
00:29 35.0 °F 31.0 °F 30.4 in NW 10 mph 10 mph 86% 0.000 in
00:34 35.0 °F 31.0 °F 30.4 in NNW 6 mph 7 mph 85% 0.000 in
00:39 35.0 °F 31.0 °F 30.4 in NNW 2 mph 5 mph 86% 0.000 in
00:44 35.0 °F 31.0 °F 30.4 in WNW 4 mph 10 mph 86% 0.000 in
00:49 34.0 °F 30.0 °F 30.4 in NW 6 mph 7 mph 85% 0.000 in
00:54 34.0 °F 30.0 °F 30.4 in NNW 4 mph 7 mph 86% 0.000 in
00:59 34.0 °F 30.0 °F 30.4 in WNW 7 mph 8 mph 86% 0.000 in
01:04 34.0 °F 30.0 °F 30.4 in NW 4 mph 7 mph 84% 0.000 in
01:09 34.0 °F 30.0 °F 30.4 in NNW 4 mph 8 mph 85% 0.000 in
01:14 34.0 °F 30.0 °F 30.4 in NNW 4 mph 8 mph 84% 0.000 in
01:19 34.0 °F 30.0 °F 30.4 in North 5 mph 6 mph 84% 0.000 in
01:24 34.0 °F 30.0 °F 30.4 in NW 3 mph 4 mph 85% 0.000 in
01:29 34.0 °F 29.0 °F 30.4 in NNW 4 mph 5 mph 84% 0.000 in
01:34 33.0 °F 29.0 °F 30.4 in NNW 3 mph 6 mph 84% 0.000 in
01:39 33.0 °F 30.0 °F 30.4 in North 3 mph 11 mph 85% 0.000 in
01:44 33.0 °F 29.0 °F 30.4 in North 6 mph 8 mph 84% 0.000 in
01:49 33.0 °F 29.0 °F 30.4 in NW 7 mph 8 mph 84% 0.000 in
01:54 33.0 °F 29.0 °F 30.4 in North 10 mph 10 mph 84% 0.000 in
01:59 33.0 °F 29.0 °F 30.4 in NW 6 mph 7 mph 84% 0.000 in
02:04 33.0 °F 29.0 °F 30.4 in NW 4 mph 7 mph 84% 0.000 in
02:09 33.0 °F 29.0 °F 30.4 in WNW 5 mph 8 mph 84% 0.000 in
02:14 33.0 °F 29.0 °F 30.4 in NW 9 mph 9 mph 84% 0.000 in
02:19 33.0 °F 28.0 °F 30.4 in WNW 5 mph 9 mph 83% 0.000 in
02:24 33.0 °F 29.0 °F 30.4 in North 7 mph 7 mph 84% 0.000 in
02:29 33.0 °F 29.0 °F 30.4 in NW 2 mph 5 mph 85% 0.000 in
02:34 33.0 °F 29.0 °F 30.4 in NW 7 mph 8 mph 85% 0.000 in
02:39 33.0 °F 28.0 °F 30.4 in WNW 2 mph 8 mph 84% 0.000 in
02:44 33.0 °F 28.0 °F 30.4 in NW 2 mph 5 mph 84% 0.000 in
02:49 33.0 °F 28.0 °F 30.4 in NW 7 mph 10 mph 84% 0.000 in
02:54 33.0 °F 28.0 °F 30.4 in NNW 2 mph 4 mph 84% 0.000 in
02:59 33.0 °F 29.0 °F 30.4 in NW 5 mph 9 mph 85% 0.000 in
03:04 33.0 °F 29.0 °F 30.4 in North 8 mph 9 mph 85% 0.000 in
03:09 33.0 °F 28.0 °F 30.4 in North 6 mph 8 mph 84% 0.000 in
03:14 33.0 °F 29.0 °F 30.4 in NNW 3 mph 5 mph 85% 0.000 in
03:19 33.0 °F 29.0 °F 30.4 in NW 4 mph 6 mph 85% 0.000 in
03:24 33.0 °F 29.0 °F 30.4 in NNW 3 mph 6 mph 85% 0.000 in
03:29 32.0 °F 28.0 °F 30.4 in North 5 mph 8 mph 85% 0.000 in
03:34 32.0 °F 28.0 °F 30.4 in NW 5 mph 6 mph 85% 0.000 in
03:39 32.0 °F 28.0 °F 30.4 in North 8 mph 9 mph 85% 0.000 in
03:44 32.0 °F 28.0 °F 30.4 in NNW 4 mph 4 mph 85% 0.000 in
03:49 32.0 °F 28.0 °F 30.4 in NW 10 mph 10 mph 86% 0.000 in
03:54 32.0 °F 28.0 °F 30.4 in NNW 4 mph 10 mph 84% 0.000 in
03:59 32.0 °F 28.0 °F 30.4 in North 5 mph 9 mph 84% 0.000 in
04:04 32.0 °F 28.0 °F 30.4 in NW 8 mph 9 mph 84% 0.000 in
04:09 32.0 °F 28.0 °F 30.4 in NW 2 mph 6 mph 85% 0.000 in
04:14 32.0 °F 28.0 °F 30.4 in NW 4 mph 6 mph 85% 0.000 in
04:19 32.0 °F 28.0 °F 30.4 in NNW 3 mph 5 mph 85% 0.000 in
04:24 32.0 °F 28.0 °F 30.4 in NW 5 mph 7 mph 85% 0.000 in
04:29 32.0 °F 27.0 °F 30.4 in NNW 3 mph 8 mph 84% 0.000 in
04:34 32.0 °F 28.0 °F 30.4 in NW 4 mph 4 mph 85% 0.000 in
04:39 32.0 °F 28.0 °F 30.4 in NE 5 mph 5 mph 85% 0.000 in
04:44 32.0 °F 27.0 °F 30.4 in NW 3 mph 8 mph 84% 0.000 in
04:49 31.0 °F 28.0 °F 30.4 in WSW 1 mph 7 mph 87% 0.000 in
04:54 31.0 °F 28.0 °F 30.4 in NNW 5 mph 5 mph 86% 0.000 in
04:59 31.0 °F 27.0 °F 30.4 in NNW 6 mph 6 mph 86% 0.000 in
05:04 31.0 °F 27.0 °F 30.4 in North 3 mph 5 mph 85% 0.000 in
05:09 31.0 °F 27.0 °F 30.5 in NNW 4 mph 6 mph 85% 0.000 in
05:14 31.0 °F 27.0 °F 30.5 in North 3 mph 4 mph 84% 0.000 in
05:19 31.0 °F 27.0 °F 30.5 in NW 2 mph 3 mph 85% 0.000 in
05:24 31.0 °F 27.0 °F 30.5 in WNW 4 mph 4 mph 85% 0.000 in
05:29 31.0 °F 27.0 °F 30.5 in NW 3 mph 5 mph 85% 0.000 in
05:34 31.0 °F 26.0 °F 30.5 in NNW 2 mph 5 mph 84% 0.000 in
05:39 31.0 °F 26.0 °F 30.5 in NNW 1 mph 3 mph 84% 0.000 in
05:44 31.0 °F 26.0 °F 30.5 in WNW 4 mph 8 mph 84% 0.000 in
05:49 30.0 °F 26.0 °F 30.5 in NNW 2 mph 4 mph 84% 0.000 in
05:54 30.0 °F 26.0 °F 30.5 in NNW 6 mph 7 mph 84% 0.000 in
05:59 30.0 °F 26.0 °F 30.5 in NW 5 mph 7 mph 83% 0.000 in
06:04 30.0 °F 26.0 °F 30.5 in NW 5 mph 7 mph 83% 0.000 in
06:09 30.0 °F 26.0 °F 30.5 in WNW 4 mph 7 mph 83% 0.000 in
06:14 30.0 °F 26.0 °F 30.5 in WNW 2 mph 7 mph 83% 0.000 in
06:19 30.0 °F 26.0 °F 30.5 in North 3 mph 8 mph 83% 0.000 in
06:24 30.0 °F 26.0 °F 30.5 in NNW 4 mph 7 mph 84% 0.000 in
06:29 30.0 °F 25.0 °F 30.5 in NW 4 mph 6 mph 84% 0.000 in
06:34 30.0 °F 25.0 °F 30.5 in NE 3 mph 3 mph 84% 0.000 in
06:39 30.0 °F 25.0 °F 30.5 in NW 5 mph 7 mph 84% 0.000 in
06:44 30.0 °F 25.0 °F 30.5 in NNW 3 mph 6 mph 84% 0.000 in
06:49 30.0 °F 25.0 °F 30.5 in North 6 mph 6 mph 84% 0.000 in
06:54 29.0 °F 25.0 °F 30.5 in NNW 4 mph 6 mph 84% 0.000 in
06:59 29.0 °F 25.0 °F 30.5 in North 7 mph 7 mph 84% 0.000 in
07:04 29.0 °F 25.0 °F 30.5 in NNW 2 mph 5 mph 84% 0.000 in
07:09 29.0 °F 25.0 °F 30.5 in North 2 mph 7 mph 84% 0.000 in
07:14 29.0 °F 25.0 °F 30.5 in NW 5 mph 9 mph 84% 0.000 in
07:19 29.0 °F 25.0 °F 30.5 in NNW 3 mph 9 mph 84% 0.000 in
07:24 29.0 °F 25.0 °F 30.5 in NNW 3 mph 7 mph 84% 0.000 in
07:29 29.0 °F 25.0 °F 30.5 in North 6 mph 7 mph 84% 0.000 in
07:34 29.0 °F 25.0 °F 30.5 in NNE 7 mph 7 mph 84% 0.000 in
07:39 29.0 °F 25.0 °F 30.5 in North 4 mph 7 mph 84% 0.000 in
07:44 29.0 °F 25.0 °F 30.5 in North 2 mph 3 mph 85% 0.000 in
07:49 29.0 °F 25.0 °F 30.5 in NW 5 mph 6 mph 85% 0.000 in
07:54 29.0 °F 25.0 °F 30.5 in NNW 4 mph 6 mph 84% 0.000 in
07:59 29.0 °F 25.0 °F 30.5 in NW 5 mph 8 mph 84% 0.000 in
08:04 29.0 °F 25.0 °F 30.5 in NW 3 mph 5 mph 84% 0.000 in
08:09 29.0 °F 25.0 °F 30.5 in NNE 6 mph 6 mph 84% 0.000 in
08:14 29.0 °F 25.0 °F 30.5 in NW 4 mph 12 mph 85% 0.000 in
08:19 29.0 °F 25.0 °F 30.5 in NNW 8 mph 12 mph 84% 0.000 in
08:24 29.0 °F 25.0 °F 30.5 in NW 5 mph 11 mph 84% 0.000 in
08:29 30.0 °F 25.0 °F 30.5 in NNW 7 mph 14 mph 83% 0.000 in
08:34 30.0 °F 25.0 °F 30.5 in NNW 4 mph 10 mph 82% 0.000 in
08:39 30.0 °F 25.0 °F 30.5 in North 7 mph 8 mph 82% 0.000 in
08:44 30.0 °F 25.0 °F 30.5 in NNW 11 mph 13 mph 81% 0.000 in
08:49 30.0 °F 24.0 °F 30.5 in NNE 4 mph 7 mph 80% 0.000 in
08:54 30.0 °F 25.0 °F 30.5 in WNW 8 mph 10 mph 81% 0.000 in
08:59 30.0 °F 24.0 °F 30.5 in NNW 6 mph 9 mph 80% 0.000 in
09:04 30.0 °F 24.0 °F 30.6 in NNW 6 mph 12 mph 80% 0.000 in
09:09 30.0 °F 24.0 °F 30.5 in North 7 mph 9 mph 80% 0.000 in
09:14 30.0 °F 24.0 °F 30.6 in NNW 4 mph 9 mph 80% 0.000 in
09:19 30.0 °F 25.0 °F 30.6 in NNW 5 mph 9 mph 80% 0.000 in
09:24 30.0 °F 24.0 °F 30.6 in NW 5 mph 8 mph 78% 0.000 in
09:29 31.0 °F 25.0 °F 30.6 in NNE 3 mph 7 mph 79% 0.000 in
09:34 31.0 °F 25.0 °F 30.6 in NNW 5 mph 7 mph 80% 0.000 in
09:39 31.0 °F 25.0 °F 30.6 in NNW 6 mph 6 mph 79% 0.000 in
09:44 31.0 °F 25.0 °F 30.6 in NW 8 mph 8 mph 78% 0.000 in
09:49 32.0 °F 25.0 °F 30.6 in NW 7 mph 8 mph 78% 0.000 in
09:54 32.0 °F 26.0 °F 30.6 in NNW 5 mph 6 mph 78% 0.000 in
09:59 32.0 °F 26.0 °F 30.6 in NNW 4 mph 5 mph 77% 0.000 in
10:04 33.0 °F 26.0 °F 30.6 in NNW 2 mph 5 mph 77% 0.000 in
10:09 33.0 °F 26.0 °F 30.6 in NW 7 mph 9 mph 76% 0.000 in
10:14 33.0 °F 26.0 °F 30.6 in NNE 5 mph 9 mph 76% 0.000 in
10:19 34.0 °F 27.0 °F 30.6 in NNW 3 mph 5 mph 76% 0.000 in
10:24 35.0 °F 28.0 °F 30.6 in North 2 mph 4 mph 75% 0.000 in
10:29 35.0 °F 28.0 °F 30.6 in NW 2 mph 4 mph 75% 0.000 in
10:34 35.0 °F 28.0 °F 30.6 in NNW 2 mph 6 mph 74% 0.000 in
10:39 35.0 °F 28.0 °F 30.6 in NNW 5 mph 6 mph 74% 0.000 in
10:44 35.0 °F 28.0 °F 30.6 in NNE 4 mph 6 mph 73% 0.000 in
10:49 36.0 °F 28.0 °F 30.6 in NW 6 mph 6 mph 73% 0.000 in
10:54 35.0 °F 28.0 °F 30.6 in NW 4 mph 6 mph 73% 0.000 in
10:59 35.0 °F 28.0 °F 30.6 in NW 5 mph 7 mph 73% 0.000 in
11:04 36.0 °F 29.0 °F 30.6 in NW 3 mph 4 mph 76% 0.000 in
11:09 36.0 °F 28.0 °F 30.6 in NNW 2 mph 4 mph 74% 0.000 in
11:14 36.0 °F 28.0 °F 30.6 in NW 8 mph 8 mph 73% 0.000 in
11:19 36.0 °F 28.0 °F 30.6 in NNW 4 mph 8 mph 71% 0.000 in
11:24 36.0 °F 28.0 °F 30.6 in NE 5 mph 5 mph 72% 0.000 in
11:29 37.0 °F 28.0 °F 30.6 in NW 3 mph 4 mph 72% 0.000 in
11:34 37.0 °F 28.0 °F 30.6 in North 3 mph 6 mph 71% 0.000 in
11:39 37.0 °F 29.0 °F 30.6 in WNW 3 mph 5 mph 73% 0.000 in
11:44 37.0 °F 29.0 °F 30.6 in West 6 mph 6 mph 71% 0.000 in
11:49 38.0 °F 30.0 °F 30.6 in NW 5 mph 7 mph 74% 0.000 in
11:54 38.0 °F 29.0 °F 30.6 in NW 3 mph 6 mph 72% 0.000 in
11:59 38.0 °F 29.0 °F 30.6 in NNW 2 mph 6 mph 71% 0.000 in
12:04 39.0 °F 30.0 °F 30.6 in North 6 mph 6 mph 71% 0.000 in
12:09 39.0 °F 30.0 °F 30.6 in NNE 5 mph 8 mph 70% 0.000 in
12:14 39.0 °F 30.0 °F 30.6 in NW 3 mph 5 mph 72% 0.000 in
12:19 39.0 °F 30.0 °F 30.6 in West 3 mph 5 mph 70% 0.000 in
12:24 39.0 °F 30.0 °F 30.6 in NNE 2 mph 4 mph 69% 0.000 in
12:29 40.0 °F 31.0 °F 30.6 in NW 4 mph 5 mph 70% 0.000 in
12:34 40.0 °F 31.0 °F 30.6 in NW 3 mph 4 mph 70% 0.000 in
12:39 40.0 °F 31.0 °F 30.6 in NNW 3 mph 3 mph 69% 0.000 in
12:44 41.0 °F 31.0 °F 30.6 in NNW 2 mph 3 mph 70% 0.000 in
12:49 41.0 °F 31.0 °F 30.6 in North 3 mph 4 mph 69% 0.000 in
12:54 41.0 °F 31.0 °F 30.6 in NE 3 mph 5 mph 66% 0.000 in
12:59 42.0 °F 31.0 °F 30.6 in NNE 2 mph 4 mph 66% 0.000 in
13:04 42.0 °F 31.0 °F 30.6 in NNW 6 mph 6 mph 65% 0.000 in
13:09 42.0 °F 31.0 °F 30.6 in NNE 3 mph 5 mph 65% 0.000 in
13:14 42.0 °F 30.0 °F 30.6 in NW 3 mph 4 mph 63% 0.000 in
13:19 42.0 °F 30.0 °F 30.6 in North 3 mph 4 mph 64% 0.000 in
13:24 42.0 °F 31.0 °F 30.5 in WNW 1 mph 2 mph 65% 0.000 in
13:29 42.0 °F 32.0 °F 30.5 in NNW 4 mph 5 mph 67% 0.000 in
13:34 42.0 °F 31.0 °F 30.5 in NNW 1 mph 3 mph 64% 0.000 in
13:39 43.0 °F 30.0 °F 30.5 in NW 5 mph 7 mph 62% 0.000 in
13:44 43.0 °F 31.0 °F 30.5 in North 5 mph 5 mph 62% 0.000 in
13:49 43.0 °F 31.0 °F 30.5 in NNW 4 mph 5 mph 62% 0.000 in
13:54 43.0 °F 31.0 °F 30.5 in NE 3 mph 6 mph 61% 0.000 in
13:59 44.0 °F 32.0 °F 30.5 in NNW 4 mph 6 mph 63% 0.000 in
14:04 44.0 °F 32.0 °F 30.5 in NW 1 mph 2 mph 62% 0.000 in
14:09 44.0 °F 31.0 °F 30.5 in NNW 2 mph 2 mph 59% 0.000 in
14:14 44.0 °F 30.0 °F 30.5 in NNW 6 mph 6 mph 58% 0.000 in
14:19 44.0 °F 30.0 °F 30.5 in NW 6 mph 6 mph 56% 0.000 in
14:24 44.0 °F 30.0 °F 30.5 in NNW 3 mph 6 mph 57% 0.000 in
14:29 45.0 °F 29.0 °F 30.5 in NW 4 mph 7 mph 54% 0.000 in
14:34 45.0 °F 30.0 °F 30.5 in NW 3 mph 3 mph 56% 0.000 in
14:39 45.0 °F 29.0 °F 30.5 in North 1 mph 2 mph 53% 0.000 in
14:44 45.0 °F 27.0 °F 30.5 in Calm   1 mph 49% 0.000 in
14:49 45.0 °F 29.0 °F 30.5 in NE 2 mph 2 mph 52% 0.000 in
14:54 45.0 °F 29.0 °F 30.5 in NW 3 mph 4 mph 53% 0.000 in
14:59 45.0 °F 29.0 °F 30.5 in WNW 6 mph 6 mph 52% 0.000 in
15:04 45.0 °F 29.0 °F 30.5 in NW 4 mph 6 mph 53% 0.000 in
15:09 45.0 °F 28.0 °F 30.5 in North 1 mph 3 mph 52% 0.000 in
15:14 45.0 °F 27.0 °F 30.5 in NW 3 mph 3 mph 49% 0.000 in
15:19 45.0 °F 28.0 °F 30.5 in Calm   1 mph 52% 0.000 in
15:24 45.0 °F 29.0 °F 30.5 in NW 1 mph 2 mph 52% 0.000 in
15:29 45.0 °F 29.0 °F 30.5 in NNW 4 mph 6 mph 53% 0.000 in
15:34 45.0 °F 29.0 °F 30.5 in North 1 mph 2 mph 54% 0.000 in
15:39 45.0 °F 29.0 °F 30.5 in NE 3 mph 5 mph 53% 0.000 in
15:44 45.0 °F 28.0 °F 30.5 in ESE 4 mph 5 mph 51% 0.000 in
15:49 45.0 °F 28.0 °F 30.5 in ENE 2 mph 3 mph 51% 0.000 in
15:54 45.0 °F 30.0 °F 30.5 in NNW 4 mph 6 mph 55% 0.000 in
15:59 45.0 °F 31.0 °F 30.5 in NW 5 mph 5 mph 56% 0.000 in
16:04 45.0 °F 30.0 °F 30.5 in NNW 1 mph 6 mph 55% 0.000 in
16:09 45.0 °F 30.0 °F 30.5 in NNW 3 mph 3 mph 54% 0.000 in
16:14 45.0 °F 30.0 °F 30.5 in NNW 3 mph 3 mph 55% 0.000 in
16:19 45.0 °F 30.0 °F 30.5 in NNW 5 mph 8 mph 54% 0.000 in
16:24 45.0 °F 30.0 °F 30.5 in NNW 2 mph 8 mph 54% 0.000 in
16:29 45.0 °F 30.0 °F 30.5 in North 2 mph 5 mph 55% 0.000 in
16:34 45.0 °F 31.0 °F 30.5 in North 1 mph 2 mph 57% 0.000 in
16:39 45.0 °F 30.0 °F 30.5 in NW 2 mph 8 mph 56% 0.000 in
16:44 45.0 °F 30.0 °F 30.5 in NNW 4 mph 8 mph 56% 0.000 in
16:49 45.0 °F 29.0 °F 30.5 in NW 4 mph 7 mph 54% 0.000 in
16:54 44.0 °F 29.0 °F 30.5 in NW 6 mph 7 mph 54% 0.000 in
16:59 44.0 °F 29.0 °F 30.5 in NW 5 mph 5 mph 55% 0.000 in
17:04 44.0 °F 29.0 °F 30.5 in NNW 4 mph 5 mph 55% 0.000 in
17:09 44.0 °F 29.0 °F 30.5 in NW 3 mph 5 mph 56% 0.000 in
17:14 44.0 °F 30.0 °F 30.5 in WNW 6 mph 7 mph 57% 0.000 in
17:19 44.0 °F 29.0 °F 30.5 in NW 6 mph 7 mph 56% 0.000 in
17:24 44.0 °F 30.0 °F 30.5 in WNW 2 mph 4 mph 57% 0.000 in
17:29 44.0 °F 30.0 °F 30.5 in WNW 3 mph 4 mph 58% 0.000 in
17:34 44.0 °F 30.0 °F 30.5 in NW 2 mph 5 mph 58% 0.000 in
17:39 43.0 °F 31.0 °F 30.5 in WNW 3 mph 5 mph 61% 0.000 in
17:44 43.0 °F 31.0 °F 30.5 in NW 2 mph 4 mph 62% 0.000 in
17:49 43.0 °F 30.0 °F 30.5 in NNW 2 mph 4 mph 60% 0.000 in
17:54 43.0 °F 30.0 °F 30.5 in NNW 3 mph 4 mph 60% 0.000 in
17:59 42.0 °F 29.0 °F 30.5 in NW 3 mph 4 mph 59% 0.000 in
18:04 42.0 °F 30.0 °F 30.5 in NW 3 mph 4 mph 61% 0.000 in
18:09 42.0 °F 30.0 °F 30.5 in NW 4 mph 4 mph 62% 0.000 in
18:14 42.0 °F 30.0 °F 30.5 in WNW 1 mph 4 mph 63% 0.000 in
18:19 42.0 °F 31.0 °F 30.5 in WNW 2 mph 4 mph 67% 0.000 in
18:24 41.0 °F 31.0 °F 30.5 in NW 2 mph 4 mph 67% 0.000 in
18:29 41.0 °F 29.0 °F 30.5 in NW 3 mph 5 mph 63% 0.000 in
18:34 40.0 °F 30.0 °F 30.5 in WNW 1 mph 5 mph 65% 0.000 in
18:39 40.0 °F 29.0 °F 30.5 in WNW 1 mph 1 mph 64% 0.000 in
18:44 40.0 °F 30.0 °F 30.5 in Calm   2 mph 68% 0.000 in
18:49 40.0 °F 30.0 °F 30.5 in NW 3 mph 3 mph 69% 0.000 in
18:54 39.0 °F 29.0 °F 30.5 in NW 2 mph 3 mph 68% 0.000 in
18:59 39.0 °F 30.0 °F 30.5 in Calm   2 mph 70% 0.000 in
19:04 39.0 °F 30.0 °F 30.5 in Calm     72% 0.000 in
19:09 38.0 °F 30.0 °F 30.5 in Calm     72% 0.000 in
19:14 38.0 °F 30.0 °F 30.5 in Calm     72% 0.000 in
19:19 38.0 °F 29.0 °F 30.5 in Calm     72% 0.000 in
19:24 37.0 °F 29.0 °F 30.5 in Calm     72% 0.000 in
19:29 37.0 °F 29.0 °F 30.5 in Calm     72% 0.000 in
19:34 37.0 °F 28.0 °F 30.5 in Calm     71% 0.000 in
19:39 37.0 °F 29.0 °F 30.5 in Calm     73% 0.000 in
19:44 36.0 °F 29.0 °F 30.5 in Calm     74% 0.000 in
19:49 36.0 °F 28.0 °F 30.5 in Calm     73% 0.000 in
19:54 36.0 °F 28.0 °F 30.5 in Calm     72% 0.000 in
19:59 35.0 °F 28.0 °F 30.5 in Calm     74% 0.000 in
20:04 35.0 °F 27.0 °F 30.5 in Calm     73% 0.000 in
20:09 35.0 °F 28.0 °F 30.6 in Calm     75% 0.000 in
20:14 34.0 °F 27.0 °F 30.6 in Calm     76% 0.000 in
20:19 34.0 °F 27.0 °F 30.6 in Calm     76% 0.000 in
20:24 34.0 °F 27.0 °F 30.6 in Calm     75% 0.000 in
20:29 34.0 °F 27.0 °F 30.6 in Calm     76% 0.000 in
20:34 33.0 °F 27.0 °F 30.6 in Calm     76% 0.000 in
20:39 33.0 °F 27.0 °F 30.6 in Calm     79% 0.000 in
20:44 33.0 °F 27.0 °F 30.6 in Calm     79% 0.000 in
20:49 33.0 °F 27.0 °F 30.6 in Calm     78% 0.000 in
20:54 33.0 °F 26.0 °F 30.6 in Calm     78% 0.000 in
20:59 32.0 °F 26.0 °F 30.6 in Calm     79% 0.000 in
21:04 32.0 °F 26.0 °F 30.6 in Calm     80% 0.000 in
21:09 32.0 °F 26.0 °F 30.6 in Calm     81% 0.000 in
21:14 32.0 °F 27.0 °F 30.6 in Calm     82% 0.000 in
21:19 31.0 °F 26.0 °F 30.6 in Calm     82% 0.000 in
21:24 31.0 °F 26.0 °F 30.6 in Calm     82% 0.000 in
21:29 31.0 °F 26.0 °F 30.6 in Calm     84% 0.000 in
21:34 31.0 °F 26.0 °F 30.6 in Calm     84% 0.000 in
21:39 30.0 °F 26.0 °F 30.6 in Calm     85% 0.000 in
21:44 30.0 °F 26.0 °F 30.6 in Calm     86% 0.000 in
21:49 30.0 °F 26.0 °F 30.6 in Calm     86% 0.000 in
21:54 30.0 °F 26.0 °F 30.6 in Calm     86% 0.000 in
21:59 30.0 °F 26.0 °F 30.6 in Calm     86% 0.000 in
22:04 30.0 °F 26.0 °F 30.6 in Calm     87% 0.000 in
22:09 30.0 °F 26.0 °F 30.6 in Calm     87% 0.000 in
22:14 30.0 °F 26.0 °F 30.6 in Calm     88% 0.000 in
22:19 30.0 °F 26.0 °F 30.6 in Calm     88% 0.000 in
22:24 30.0 °F 26.0 °F 30.6 in Calm     87% 0.000 in
22:29 29.0 °F 26.0 °F 30.6 in Calm     87% 0.000 in
22:34 29.0 °F 26.0 °F 30.6 in Calm     87% 0.000 in
22:39 29.0 °F 26.0 °F 30.6 in Calm     87% 0.000 in
22:44 29.0 °F 26.0 °F 30.6 in Calm     88% 0.000 in
22:49 29.0 °F 26.0 °F 30.6 in Calm     88% 0.000 in
22:54 29.0 °F 26.0 °F 30.5 in Calm     88% 0.000 in
22:59 29.0 °F 26.0 °F 30.6 in Calm     88% 0.000 in
23:04 29.0 °F 26.0 °F 30.5 in Calm     89% 0.000 in
23:09 29.0 °F 26.0 °F 30.5 in Calm     89% 0.000 in
23:14 29.0 °F 26.0 °F 30.5 in Calm     89% 0.000 in
23:19 28.0 °F 26.0 °F 30.5 in Calm     89% 0.000 in
23:24 28.0 °F 26.0 °F 30.5 in Calm     89% 0.000 in
23:29 28.0 °F 26.0 °F 30.5 in Calm     90% 0.000 in
23:34 28.0 °F 26.0 °F 30.5 in Calm     90% 0.000 in
23:39 29.0 °F 26.0 °F 30.5 in Calm     90% 0.000 in
23:44 29.0 °F 26.0 °F 30.5 in Calm     89% 0.000 in
23:49 29.0 °F 26.0 °F 30.5 in Calm     89% 0.000 in
23:54 29.0 °F 26.0 °F 30.5 in Calm     88% 0.000 in
23:59 29.0 °F 26.0 °F 30.5 in Calm     89% 0.000 in
East Ellijay Weather
Compliments of Weather Underground - 2 mb